Dixon, Wyoming
Current Conditions -  °F | °C
As of 5:35 AM on Sunday 21 Dec 2014 (Local Time) from KDWX Reporting Station
Unknown Precip Unknown Precip  
Wind Chill: 23°   Ceiling: 3000
Heat Index: 32°   Visibility: 5mi
Dew Point: 28°   Wind: 13mph
Humidity: 86%   Direction: 220°SW
Pressure: 29.93"   Gusts: 22mph
Location:  41.03°N, 107.54°W
Report Text: KDWX 211235Z AUTO 22011G19KT 5SM UP OVC030 00/M02 A2993 RMK AO2 T00001021
Loading
Personal Weather Stations






























Interactive Weather Map New forecast layout! Learn more

10-Day Weather Forecast

Advertisements
Track Severe Weather on mobile